EWG462 LPPS-LPMA
Flight info
| Callsign | EWG462 |
|---|---|
| Flight time | 0h 19m |
| Altitude | 7000 |
| Route | PILIM |
| Aircraft | A319/M-SDE3FGHIRWY/LB1 |
Departure
| Time | 2026-04-22 15:07 |
|---|---|
| Airport | Porto Santo Airport (LPPS) |
Arrival
| Time | 2026-04-22 15:26 |
|---|---|
| Airport | Cristiano Ronaldo International Airport (LPMA) |
| Time | Latitude | Longitude | Altitude | Speed | Heading |
|---|---|---|---|---|---|
| 2026-04-22 14:56 | 33.08493 | -16.35429 | 323 ft | 0 kts | 278° |
| 2026-04-22 15:03 | 33.08495 | -16.35431 | 326 ft | 1 kts | 303° |
| 2026-04-22 15:03 | 33.08498 | -16.35431 | 326 ft | 0 kts | 330° |
| 2026-04-22 15:03 | 33.08501 | -16.35419 | 323 ft | 3 kts | 85° |
| 2026-04-22 15:03 | 33.08494 | -16.35342 | 325 ft | 15 kts | 107° |
| 2026-04-22 15:04 | 33.08386 | -16.35224 | 321 ft | 27 kts | 141° |
| 2026-04-22 15:04 | 33.08195 | -16.35061 | 314 ft | 40 kts | 145° |
| 2026-04-22 15:04 | 33.07925 | -16.35006 | 301 ft | 44 kts | 178° |
| 2026-04-22 15:04 | 33.07590 | -16.35004 | 293 ft | 52 kts | 180° |
| 2026-04-22 15:05 | 33.07201 | -16.35001 | 280 ft | 60 kts | 178° |
| 2026-04-22 15:05 | 33.06755 | -16.34987 | 262 ft | 69 kts | 178° |
| 2026-04-22 15:05 | 33.06212 | -16.34953 | 240 ft | 85 kts | 177° |
| 2026-04-22 15:05 | 33.06008 | -16.34868 | 235 ft | 17 kts | 71° |
| 2026-04-22 15:06 | 33.06067 | -16.34840 | 237 ft | 10 kts | 333° |
| 2026-04-22 15:06 | 33.06137 | -16.34928 | 256 ft | 20 kts | 302° |
| 2026-04-22 15:06 | 33.06207 | -16.34961 | 240 ft | 24 kts | 358° |
| 2026-04-22 15:06 | 33.06683 | -16.34974 | 258 ft | 111 kts | 359° |
| 2026-04-22 15:07 | 33.07672 | -16.35028 | 327 ft | 175 kts | 358° |
| 2026-04-22 15:07 | 33.09013 | -16.35009 | 646 ft | 202 kts | 360° |
| 2026-04-22 15:07 | 33.10446 | -16.35077 | 1260 ft | 206 kts | 354° |
| 2026-04-22 15:07 | 33.11901 | -16.35170 | 1805 ft | 217 kts | 353° |
| 2026-04-22 15:08 | 33.13503 | -16.35229 | 2178 ft | 243 kts | 356° |
| 2026-04-22 15:08 | 33.15258 | -16.35266 | 2862 ft | 258 kts | 358° |
| 2026-04-22 15:08 | 33.17011 | -16.35604 | 3763 ft | 262 kts | 333° |
| 2026-04-22 15:08 | 33.18339 | -16.37033 | 4746 ft | 260 kts | 297° |
| 2026-04-22 15:09 | 33.18718 | -16.39106 | 5683 ft | 261 kts | 262° |
| 2026-04-22 15:09 | 33.18060 | -16.41120 | 6539 ft | 266 kts | 237° |
| 2026-04-22 15:09 | 33.16953 | -16.42886 | 6865 ft | 266 kts | 231° |
| 2026-04-22 15:09 | 33.15793 | -16.44606 | 6981 ft | 265 kts | 231° |
| 2026-04-22 15:10 | 33.14634 | -16.46317 | 7000 ft | 265 kts | 231° |
| 2026-04-22 15:10 | 33.13475 | -16.48024 | 6998 ft | 264 kts | 231° |
| 2026-04-22 15:10 | 33.12433 | -16.49832 | 6999 ft | 264 kts | 239° |
| 2026-04-22 15:10 | 33.11387 | -16.51595 | 6997 ft | 265 kts | 228° |
| 2026-04-22 15:11 | 33.09963 | -16.52971 | 6994 ft | 266 kts | 210° |
| 2026-04-22 15:11 | 33.08214 | -16.53717 | 7003 ft | 269 kts | 193° |
| 2026-04-22 15:11 | 33.06376 | -16.54156 | 7006 ft | 270 kts | 193° |
| 2026-04-22 15:11 | 33.04539 | -16.54589 | 6991 ft | 269 kts | 193° |
| 2026-04-22 15:12 | 33.02698 | -16.55022 | 6991 ft | 270 kts | 193° |
| 2026-04-22 15:12 | 33.00858 | -16.55456 | 6995 ft | 270 kts | 193° |
| 2026-04-22 15:12 | 32.99015 | -16.55895 | 6996 ft | 270 kts | 193° |
| 2026-04-22 15:12 | 32.97171 | -16.56334 | 6994 ft | 270 kts | 193° |
| 2026-04-22 15:13 | 32.95357 | -16.56763 | 6913 ft | 269 kts | 193° |
| 2026-04-22 15:13 | 32.93529 | -16.57197 | 6613 ft | 267 kts | 193° |
| 2026-04-22 15:13 | 32.91698 | -16.57634 | 6087 ft | 273 kts | 193° |
| 2026-04-22 15:13 | 32.89838 | -16.58078 | 5620 ft | 270 kts | 193° |
| 2026-04-22 15:14 | 32.88047 | -16.58692 | 5050 ft | 265 kts | 207° |
| 2026-04-22 15:14 | 32.86549 | -16.59918 | 4501 ft | 259 kts | 226° |
| 2026-04-22 15:14 | 32.85484 | -16.61621 | 3926 ft | 256 kts | 243° |
| 2026-04-22 15:14 | 32.84766 | -16.63553 | 3382 ft | 253 kts | 241° |
| 2026-04-22 15:15 | 32.83681 | -16.65103 | 3243 ft | 235 kts | 220° |
| 2026-04-22 15:15 | 32.82382 | -16.66094 | 3161 ft | 218 kts | 206° |
| 2026-04-22 15:15 | 32.81054 | -16.66840 | 3012 ft | 206 kts | 208° |
| 2026-04-22 15:15 | 32.79766 | -16.67586 | 2521 ft | 206 kts | 208° |
| 2026-04-22 15:16 | 32.78482 | -16.68337 | 2036 ft | 206 kts | 209° |
| 2026-04-22 15:16 | 32.77202 | -16.69087 | 1645 ft | 202 kts | 208° |
| 2026-04-22 15:16 | 32.75995 | -16.69791 | 1486 ft | 184 kts | 208° |
| 2026-04-22 15:16 | 32.74925 | -16.70413 | 1409 ft | 164 kts | 210° |
| 2026-04-22 15:17 | 32.73932 | -16.70995 | 1414 ft | 154 kts | 210° |
| 2026-04-22 15:17 | 32.72986 | -16.71565 | 1406 ft | 153 kts | 211° |
| 2026-04-22 15:17 | 32.72081 | -16.72110 | 1398 ft | 140 kts | 212° |
| 2026-04-22 15:17 | 32.71252 | -16.72607 | 1399 ft | 130 kts | 211° |
| 2026-04-22 15:18 | 32.70450 | -16.73094 | 1395 ft | 129 kts | 211° |
| 2026-04-22 15:18 | 32.69646 | -16.73585 | 1417 ft | 128 kts | 211° |
| 2026-04-22 15:18 | 32.68904 | -16.74120 | 1418 ft | 123 kts | 216° |
| 2026-04-22 15:18 | 32.68238 | -16.74762 | 1396 ft | 122 kts | 226° |
| 2026-04-22 15:19 | 32.67621 | -16.75486 | 1568 ft | 126 kts | 228° |
| 2026-04-22 15:19 | 32.67035 | -16.76270 | 1689 ft | 126 kts | 232° |
| 2026-04-22 15:19 | 32.66500 | -16.77062 | 1792 ft | 123 kts | 234° |
| 2026-04-22 15:19 | 32.66035 | -16.77937 | 1692 ft | 126 kts | 243° |
| 2026-04-22 15:20 | 32.65826 | -16.78930 | 1435 ft | 130 kts | 261° |
| 2026-04-22 15:20 | 32.66062 | -16.79944 | 1390 ft | 133 kts | 295° |
| 2026-04-22 15:20 | 32.66891 | -16.80530 | 943 ft | 151 kts | 356° |
| 2026-04-22 15:20 | 32.67794 | -16.79906 | 653 ft | 160 kts | 52° |
| 2026-04-22 15:21 | 32.68543 | -16.78870 | 328 ft | 172 kts | 40° |
| 2026-04-22 15:21 | 32.69398 | -16.77903 | 353 ft | 170 kts | 49° |
| 2026-04-22 15:21 | 32.70113 | -16.76804 | 931 ft | 169 kts | 66° |
| 2026-04-22 15:21 | 32.70381 | -16.75414 | 1459 ft | 178 kts | 91° |
| 2026-04-22 15:22 | 32.70305 | -16.73878 | 1793 ft | 197 kts | 96° |
| 2026-04-22 15:22 | 32.70218 | -16.72239 | 2104 ft | 199 kts | 95° |
| 2026-04-22 15:22 | 32.70441 | -16.70675 | 2161 ft | 190 kts | 57° |
| 2026-04-22 15:22 | 32.71347 | -16.69657 | 2197 ft | 180 kts | 28° |
| 2026-04-22 15:23 | 32.72486 | -16.69132 | 2249 ft | 174 kts | 9° |
| 2026-04-22 15:23 | 32.73611 | -16.69328 | 2153 ft | 159 kts | 320° |
| 2026-04-22 15:23 | 32.74101 | -16.70358 | 1932 ft | 140 kts | 271° |
| 2026-04-22 15:23 | 32.74003 | -16.71470 | 1718 ft | 134 kts | 253° |
| 2026-04-22 15:24 | 32.73671 | -16.72494 | 1480 ft | 130 kts | 247° |
| 2026-04-22 15:24 | 32.73199 | -16.73411 | 1066 ft | 128 kts | 229° |
| 2026-04-22 15:24 | 32.72624 | -16.74134 | 825 ft | 114 kts | 224° |
| 2026-04-22 15:24 | 32.72085 | -16.74761 | 606 ft | 115 kts | 224° |
| 2026-04-22 15:25 | 32.71502 | -16.75449 | 479 ft | 117 kts | 222° |
| 2026-04-22 15:25 | 32.70934 | -16.76116 | 325 ft | 112 kts | 221° |
| 2026-04-22 15:25 | 32.70398 | -16.76732 | 212 ft | 100 kts | 223° |
| 2026-04-22 15:25 | 32.69973 | -16.77226 | 194 ft | 69 kts | 225° |
| 2026-04-22 15:26 | 32.69659 | -16.77595 | 179 ft | 65 kts | 224° |
| 2026-04-22 15:26 | 32.69331 | -16.77975 | 169 ft | 57 kts | 225° |
| 2026-04-22 15:26 | 32.69072 | -16.78279 | 160 ft | 34 kts | 225° |
| 2026-04-22 15:26 | 32.68921 | -16.78404 | 154 ft | 22 kts | 194° |
| 2026-04-22 15:27 | 32.68927 | -16.78461 | 154 ft | 15 kts | 29° |
| 2026-04-22 15:27 | 32.69025 | -16.78340 | 155 ft | 28 kts | 45° |
| 2026-04-22 15:27 | 32.69198 | -16.78139 | 165 ft | 38 kts | 45° |
| 2026-04-22 15:27 | 32.69289 | -16.77982 | 169 ft | 18 kts | 91° |
| 2026-04-22 15:28 | 32.69291 | -16.77863 | 169 ft | 10 kts | 80° |
| 2026-04-22 15:28 | 32.69336 | -16.77799 | 169 ft | 11 kts | 44° |
| 2026-04-22 15:28 | 32.69393 | -16.77731 | 169 ft | 12 kts | 46° |
| 2026-04-22 15:28 | 32.69428 | -16.77674 | 169 ft | 1 kts | 104° |
| 2026-04-22 15:29 | 32.69412 | -16.77655 | 169 ft | 4 kts | 142° |
| 2026-04-22 15:29 | 32.69389 | -16.77631 | 169 ft | 4 kts | 138° |
| 2026-04-22 15:29 | 32.69386 | -16.77627 | 169 ft | 0 kts | 138° |